createdAt,value
2023-02-05T00:00:20.286Z,97.47
2023-02-05T00:02:52.883Z,97.45
2023-02-05T00:05:22.809Z,97.38
2023-02-05T00:07:52.630Z,97.42
2023-02-05T00:10:22.553Z,97.32
2023-02-05T00:12:52.347Z,97.37
2023-02-05T00:15:22.275Z,97.39
2023-02-05T00:17:54.656Z,97.46
2023-02-05T00:20:24.561Z,97.33
2023-02-05T00:22:57.781Z,97.50
2023-02-05T00:25:27.691Z,97.51
2023-02-05T00:27:57.490Z,97.56
2023-02-05T00:30:28.624Z,97.68
2023-02-05T00:33:01.082Z,97.67
2023-02-05T00:35:30.923Z,97.59
2023-02-05T00:38:00.732Z,97.69
2023-02-05T00:40:30.497Z,97.63
2023-02-05T00:43:00.313Z,97.74
2023-02-05T00:45:35.245Z,97.76
2023-02-05T00:48:08.648Z,97.75
2023-02-05T00:50:38.678Z,97.75
2023-02-05T00:53:10.234Z,97.83
2023-02-05T00:55:40.102Z,97.88
2023-02-05T00:58:09.973Z,97.90
2023-02-05T01:00:39.936Z,97.99
2023-02-05T01:03:12.528Z,98.09
2023-02-05T01:05:43.011Z,98.15
2023-02-05T01:08:14.799Z,98.21
2023-02-05T01:10:47.474Z,98.16
2023-02-05T01:13:18.317Z,98.21
2023-02-05T01:15:48.603Z,98.39
2023-02-05T01:18:21.409Z,98.42
2023-02-05T01:20:51.311Z,98.50
2023-02-05T01:23:21.100Z,98.56
2023-02-05T01:25:51.202Z,98.50
2023-02-05T01:28:21.171Z,98.80
2023-02-05T01:30:52.098Z,98.85
2023-02-05T01:33:24.527Z,98.89
2023-02-05T01:35:54.300Z,99.03
2023-02-05T01:38:24.114Z,99.07
2023-02-05T01:40:54.093Z,99.23
2023-02-05T01:43:24.134Z,99.29
2023-02-05T01:46:08.657Z,99.40
2023-02-05T01:48:45.647Z,99.58
2023-02-05T01:51:18.750Z,99.62
2023-02-05T01:53:51.396Z,99.78
2023-02-05T01:56:25.167Z,99.88
2023-02-05T01:58:59.994Z,99.99
2023-02-05T02:01:30.866Z,100.00
2023-02-05T02:04:04.998Z,100.00
2023-02-05T02:06:36.616Z,100.00
2023-02-05T02:09:09.661Z,100.00
2023-02-05T02:11:43.670Z,100.00
2023-02-05T02:14:14.875Z,100.00
2023-02-05T02:16:44.830Z,100.00
2023-02-05T02:19:24.278Z,100.00
2023-02-05T02:22:15.398Z,100.00
2023-02-05T02:25:20.855Z,100.00
2023-02-05T02:27:57.554Z,100.00
2023-02-05T02:30:31.989Z,100.00
2023-02-05T02:33:10.024Z,100.00
2023-02-05T02:35:47.144Z,100.00
2023-02-05T02:38:24.087Z,100.00
2023-02-05T02:40:56.869Z,100.00
2023-02-05T02:43:34.291Z,100.00
2023-02-05T02:46:08.403Z,100.00
2023-02-05T02:48:50.878Z,100.00
2023-02-05T02:51:25.316Z,100.00
2023-02-05T02:53:58.802Z,100.00
2023-02-05T02:56:32.266Z,100.00
2023-02-05T02:59:09.218Z,100.00
2023-02-05T03:01:52.345Z,100.00
2023-02-05T03:04:28.601Z,100.00
2023-02-05T03:07:03.250Z,100.00
2023-02-05T03:09:43.148Z,100.00
2023-02-05T03:12:13.034Z,100.00
2023-02-05T03:14:45.647Z,100.00
2023-02-05T03:17:18.862Z,100.00
2023-02-05T03:19:49.570Z,100.00
2023-02-05T03:22:19.415Z,100.00
2023-02-05T03:24:49.162Z,100.00
2023-02-05T03:27:19.043Z,100.00
2023-02-05T03:29:52.819Z,100.00
2023-02-05T03:32:38.101Z,100.00
2023-02-05T03:35:29.442Z,100.00
2023-02-05T03:38:14.250Z,100.00
2023-02-05T03:40:50.848Z,100.00
2023-02-05T03:43:34.960Z,100.00
2023-02-05T03:46:18.072Z,100.00
2023-02-05T03:49:04.512Z,100.00
2023-02-05T03:51:42.217Z,100.00
2023-02-05T03:54:19.768Z,100.00
2023-02-05T03:56:58.246Z,100.00
2023-02-05T03:59:29.574Z,100.00
2023-02-05T04:02:04.847Z,100.00
2023-02-05T04:04:34.637Z,100.00
2023-02-05T04:07:05.321Z,100.00
2023-02-05T04:09:35.114Z,100.00
2023-02-05T04:12:04.882Z,100.00
2023-02-05T04:14:34.630Z,100.00
2023-02-05T04:17:07.824Z,100.00
2023-02-05T04:19:37.662Z,100.00
2023-02-05T04:22:07.423Z,100.00
2023-02-05T04:24:37.168Z,100.00
2023-02-05T04:27:06.979Z,100.00
2023-02-05T04:29:36.702Z,100.00
2023-02-05T04:32:09.104Z,100.00
2023-02-05T04:34:38.854Z,100.00
2023-02-05T04:37:08.765Z,100.00
2023-02-05T04:39:38.517Z,100.00
2023-02-05T04:42:08.552Z,100.00
2023-02-05T04:44:38.307Z,100.00
2023-02-05T04:47:10.780Z,100.00
2023-02-05T04:49:40.948Z,100.00
2023-02-05T04:52:10.890Z,100.00
2023-02-05T04:54:40.972Z,100.00
2023-02-05T04:57:10.854Z,100.00
2023-02-05T04:59:40.858Z,100.00
2023-02-05T05:02:13.294Z,100.00
2023-02-05T05:04:43.372Z,100.00
2023-02-05T05:07:13.380Z,100.00
2023-02-05T05:09:43.289Z,100.00
2023-02-05T05:12:13.050Z,100.00
2023-02-05T05:14:42.894Z,100.00
2023-02-05T05:17:15.449Z,100.00
2023-02-05T05:19:45.506Z,100.00
2023-02-05T05:22:15.323Z,100.00
2023-02-05T05:24:45.164Z,100.00
2023-02-05T05:27:15.008Z,100.00
2023-02-05T05:29:45.058Z,100.00
2023-02-05T05:32:17.580Z,100.00
2023-02-05T05:34:47.868Z,100.00
2023-02-05T05:37:17.645Z,100.00
2023-02-05T05:39:59.790Z,100.00
2023-02-05T05:42:41.957Z,100.00
2023-02-05T05:45:12.247Z,100.00
2023-02-05T05:47:44.647Z,100.00
2023-02-05T05:50:14.476Z,100.00
2023-02-05T05:52:44.407Z,100.00
2023-02-05T05:55:14.200Z,100.00
2023-02-05T05:57:43.951Z,100.00
2023-02-05T06:00:15.789Z,100.00
2023-02-05T06:02:48.160Z,100.00
2023-02-05T06:05:17.929Z,100.00
2023-02-05T06:07:47.706Z,100.00
2023-02-05T06:10:17.526Z,100.00
2023-02-05T06:12:47.272Z,100.00
2023-02-05T06:15:17.142Z,100.00
2023-02-05T06:17:49.651Z,100.00
2023-02-05T06:20:19.591Z,100.00
2023-02-05T06:22:49.385Z,100.00
2023-02-05T06:25:19.175Z,100.00
2023-02-05T06:27:48.994Z,100.00
2023-02-05T06:30:19.039Z,100.00
2023-02-05T06:32:51.490Z,100.00
2023-02-05T06:35:22.848Z,100.00
2023-02-05T06:37:52.621Z,100.00
2023-02-05T06:40:22.568Z,100.00
2023-02-05T06:42:52.379Z,100.00
2023-02-05T06:45:22.500Z,100.00
2023-02-05T06:47:56.251Z,100.00
2023-02-05T06:50:26.276Z,100.00
2023-02-05T06:52:56.322Z,100.00
2023-02-05T06:55:26.209Z,100.00
2023-02-05T06:57:56.005Z,100.00
2023-02-05T07:00:26.205Z,100.00
2023-02-05T07:02:58.711Z,100.00
2023-02-05T07:05:28.527Z,100.00
2023-02-05T07:07:59.903Z,100.00
2023-02-05T07:10:29.691Z,100.00
2023-02-05T07:12:59.518Z,100.00
2023-02-05T07:15:29.313Z,100.00
2023-02-05T07:18:01.664Z,100.00
2023-02-05T07:20:31.486Z,100.00
2023-02-05T07:23:01.239Z,100.00
2023-02-05T07:25:36.550Z,100.00
2023-02-05T07:28:06.912Z,100.00
2023-02-05T07:30:36.709Z,100.00
2023-02-05T07:33:09.847Z,100.00
2023-02-05T07:35:40.935Z,100.00
2023-02-05T07:38:11.049Z,100.00
2023-02-05T07:40:42.482Z,100.00
2023-02-05T07:43:12.307Z,100.00
2023-02-05T07:45:42.023Z,100.00
2023-02-05T07:48:14.463Z,100.00
2023-02-05T07:50:47.115Z,100.00
2023-02-05T07:53:17.252Z,100.00
2023-02-05T07:55:47.076Z,100.00
2023-02-05T07:58:17.204Z,100.00
2023-02-05T08:00:47.246Z,100.00
2023-02-05T08:03:19.625Z,100.00
2023-02-05T08:05:49.432Z,100.00
2023-02-05T08:08:19.347Z,100.00
2023-02-05T08:10:49.187Z,100.00
2023-02-05T08:13:18.964Z,100.00
2023-02-05T08:15:50.758Z,100.00
2023-02-05T08:18:23.126Z,100.00
2023-02-05T08:20:55.432Z,100.00
2023-02-05T08:23:25.334Z,100.00
2023-02-05T08:25:56.931Z,100.00
2023-02-05T08:28:28.052Z,100.00
2023-02-05T08:30:58.964Z,100.00
2023-02-05T08:33:31.660Z,100.00
2023-02-05T08:36:01.558Z,100.00
2023-02-05T08:38:31.304Z,100.00
2023-02-05T08:41:01.114Z,100.00
2023-02-05T08:43:31.023Z,100.00
2023-02-05T08:46:00.956Z,100.00
2023-02-05T08:48:33.491Z,100.00
2023-02-05T08:51:03.942Z,100.00
2023-02-05T08:53:33.810Z,100.00
2023-02-05T08:56:06.584Z,100.00
2023-02-05T08:58:36.571Z,100.00
2023-02-05T09:01:08.704Z,100.00
2023-02-05T09:03:41.649Z,100.00
2023-02-05T09:06:13.752Z,100.00
2023-02-05T09:08:46.969Z,100.00
2023-02-05T09:11:17.072Z,100.00
2023-02-05T09:13:46.848Z,100.00
2023-02-05T09:16:16.762Z,100.00
2023-02-05T09:18:49.338Z,100.00
2023-02-05T09:21:19.088Z,100.00
2023-02-05T09:23:49.072Z,100.00
2023-02-05T09:26:18.933Z,100.00
2023-02-05T09:28:48.983Z,100.00
2023-02-05T09:31:20.244Z,100.00
2023-02-05T09:33:52.756Z,100.00
2023-02-05T09:36:24.530Z,100.00
2023-02-05T09:39:11.747Z,100.00
2023-02-05T09:41:50.125Z,100.00
2023-02-05T09:44:30.310Z,100.00
2023-02-05T09:47:08.596Z,100.00
2023-02-05T09:49:46.786Z,100.00
2023-02-05T09:52:22.774Z,100.00
2023-02-05T09:54:58.240Z,100.00
2023-02-05T09:57:35.766Z,100.00
2023-02-05T10:00:08.404Z,100.00
2023-02-05T10:02:48.027Z,100.00
2023-02-05T10:05:25.022Z,100.00
2023-02-05T10:08:01.791Z,100.00
2023-02-05T10:10:39.468Z,100.00
2023-02-05T10:13:30.311Z,100.00
2023-02-05T10:16:20.951Z,100.00
2023-02-05T10:19:06.522Z,100.00
2023-02-05T10:21:59.113Z,100.00
2023-02-05T10:24:48.740Z,100.00
2023-02-05T10:27:23.688Z,100.00
2023-02-05T10:30:03.712Z,100.00
2023-02-05T10:32:43.089Z,100.00
2023-02-05T10:35:26.582Z,100.00
2023-02-05T10:37:59.958Z,100.00
2023-02-05T10:40:35.321Z,100.00
2023-02-05T10:43:13.554Z,100.00
2023-02-05T10:45:43.322Z,100.00
2023-02-05T10:48:32.031Z,100.00
2023-02-05T10:51:04.854Z,100.00
2023-02-05T10:53:37.882Z,100.00
2023-02-05T10:56:09.173Z,100.00
2023-02-05T10:58:47.170Z,100.00
2023-02-05T11:01:19.952Z,100.00
2023-02-05T11:03:56.892Z,100.00
2023-02-05T11:06:29.479Z,100.00
2023-02-05T11:09:02.398Z,100.00
2023-02-05T11:11:34.914Z,100.00
2023-02-05T11:14:08.983Z,100.00
2023-02-05T11:16:41.800Z,100.00
2023-02-05T11:19:24.212Z,100.00
2023-02-05T11:21:57.379Z,100.00
2023-02-05T11:24:42.697Z,100.00
2023-02-05T11:27:33.484Z,100.00
2023-02-05T11:30:42.109Z,100.00
2023-02-05T11:33:28.519Z,100.00
2023-02-05T11:36:01.062Z,100.00
2023-02-05T11:38:39.852Z,100.00
2023-02-05T11:41:13.634Z,100.00
2023-02-05T11:43:51.777Z,100.00
2023-02-05T11:46:24.195Z,100.00
2023-02-05T11:49:00.519Z,100.00
2023-02-05T11:51:44.674Z,100.00
2023-02-05T11:54:22.506Z,100.00
2023-02-05T11:57:27.075Z,100.00
2023-02-05T11:59:59.927Z,100.00
2023-02-05T12:02:36.150Z,100.00
2023-02-05T12:05:15.764Z,100.00
2023-02-05T12:07:51.390Z,100.00
2023-02-05T12:10:28.916Z,100.00
2023-02-05T12:13:10.104Z,100.00
2023-02-05T12:15:47.736Z,100.00
2023-02-05T12:18:29.563Z,100.00
2023-02-05T12:21:14.610Z,100.00
2023-02-05T12:24:07.785Z,100.00
2023-02-05T12:26:41.119Z,100.00
2023-02-05T12:29:32.317Z,100.00
2023-02-05T12:32:09.201Z,100.00
2023-02-05T12:34:48.657Z,100.00
2023-02-05T12:37:36.361Z,100.00
2023-02-05T12:40:19.168Z,100.00
2023-02-05T12:42:55.228Z,100.00
2023-02-05T12:45:51.100Z,100.00
2023-02-05T12:48:40.171Z,100.00
2023-02-05T12:51:24.656Z,100.00
2023-02-05T12:54:05.930Z,100.00
2023-02-05T12:56:52.335Z,100.00
2023-02-05T12:59:33.790Z,100.00
2023-02-05T13:02:10.144Z,100.00
2023-02-05T13:04:44.340Z,100.00
2023-02-05T13:07:29.387Z,100.00
2023-02-05T13:10:03.333Z,100.00
2023-02-05T13:12:38.613Z,100.00
2023-02-05T13:15:19.592Z,100.00
2023-02-05T13:18:00.160Z,100.00
2023-02-05T13:20:47.412Z,100.00
2023-02-05T13:23:30.426Z,100.00
2023-02-05T13:26:13.057Z,100.00
2023-02-05T13:28:47.729Z,100.00
2023-02-05T13:31:30.650Z,100.00
2023-02-05T13:34:06.897Z,100.00
2023-02-05T13:36:56.149Z,100.00
2023-02-05T13:40:04.899Z,100.00
2023-02-05T13:43:13.999Z,100.00
2023-02-05T13:46:26.265Z,100.00
2023-02-05T13:49:30.034Z,100.00
2023-02-05T13:52:21.449Z,100.00
2023-02-05T13:55:18.993Z,100.00
2023-02-05T13:58:20.531Z,99.99
2023-02-05T14:01:01.396Z,99.81
2023-02-05T14:03:41.250Z,99.80
2023-02-05T14:06:30.159Z,99.57
2023-02-05T14:09:04.361Z,99.54
2023-02-05T14:11:55.959Z,99.38
2023-02-05T14:14:31.696Z,99.44
2023-02-05T14:17:03.060Z,99.41
2023-02-05T14:19:58.533Z,99.38
2023-02-05T14:22:44.829Z,99.37
2023-02-05T14:25:50.550Z,99.37
2023-02-05T14:28:48.171Z,99.31
2023-02-05T14:31:48.823Z,99.33
2023-02-05T14:34:49.301Z,99.37
2023-02-05T14:37:33.892Z,99.46
2023-02-05T14:40:25.075Z,99.55
2023-02-05T14:43:09.522Z,99.58
2023-02-05T14:45:46.632Z,99.57
2023-02-05T14:48:29.427Z,99.67
2023-02-05T14:51:08.625Z,99.76
2023-02-05T14:53:39.967Z,99.75
2023-02-05T14:56:31.732Z,99.93
2023-02-05T14:59:07.432Z,100.00
2023-02-05T15:01:50.840Z,100.00
2023-02-05T15:04:42.842Z,100.00
2023-02-05T15:07:16.453Z,100.00
2023-02-05T15:09:50.793Z,100.00
2023-02-05T15:12:51.571Z,100.00
2023-02-05T15:15:33.707Z,100.00
2023-02-05T15:18:25.035Z,100.00
2023-02-05T15:20:57.672Z,100.00
2023-02-05T15:23:37.976Z,100.00
2023-02-05T15:26:10.319Z,100.00
2023-02-05T15:28:45.352Z,100.00
2023-02-05T15:31:32.000Z,100.00
2023-02-05T15:34:09.235Z,100.00
2023-02-05T15:36:46.143Z,100.00
2023-02-05T15:39:24.311Z,100.00
2023-02-05T15:41:58.007Z,100.00
2023-02-05T15:44:33.863Z,100.00
2023-02-05T15:47:06.617Z,100.00
2023-02-05T15:49:41.130Z,100.00
2023-02-05T15:52:11.247Z,100.00
2023-02-05T15:54:41.047Z,100.00
2023-02-05T15:57:16.132Z,100.00
2023-02-05T15:59:48.630Z,100.00
2023-02-05T16:02:21.407Z,100.00
2023-02-05T16:04:58.477Z,100.00
2023-02-05T16:07:32.535Z,100.00
2023-02-05T16:10:05.008Z,100.00
2023-02-05T16:12:34.784Z,100.00
2023-02-05T16:15:09.803Z,100.00
2023-02-05T16:17:45.752Z,100.00
2023-02-05T16:20:26.804Z,100.00
2023-02-05T16:23:00.047Z,100.00
2023-02-05T16:25:40.006Z,100.00
2023-02-05T16:28:16.452Z,100.00
2023-02-05T16:30:53.057Z,100.00
2023-02-05T16:33:33.600Z,100.00
2023-02-05T16:36:05.972Z,100.00
2023-02-05T16:38:38.488Z,100.00
2023-02-05T16:41:27.103Z,100.00
2023-02-05T16:43:58.735Z,100.00
2023-02-05T16:46:32.467Z,100.00
2023-02-05T16:49:03.727Z,100.00
2023-02-05T16:51:37.853Z,100.00
2023-02-05T16:54:30.211Z,100.00
2023-02-05T16:57:06.064Z,100.00
2023-02-05T16:59:43.368Z,100.00
2023-02-05T17:02:29.320Z,100.00
2023-02-05T17:05:01.662Z,100.00
2023-02-05T17:07:33.201Z,100.00
2023-02-05T17:10:20.092Z,100.00
2023-02-05T17:12:58.777Z,100.00
2023-02-05T17:15:42.624Z,100.00
2023-02-05T17:18:31.111Z,100.00
2023-02-05T17:21:26.811Z,100.00
2023-02-05T17:23:59.567Z,100.00
2023-02-05T17:26:43.577Z,100.00
2023-02-05T17:29:18.686Z,100.00
2023-02-05T17:31:48.630Z,100.00
2023-02-05T17:34:21.200Z,100.00
2023-02-05T17:36:51.665Z,100.00
2023-02-05T17:39:21.723Z,100.00
2023-02-05T17:42:08.783Z,100.00
2023-02-05T17:45:01.392Z,100.00
2023-02-05T17:47:46.793Z,100.00
2023-02-05T17:50:20.294Z,100.00
2023-02-05T17:52:50.173Z,100.00
2023-02-05T17:55:22.610Z,100.00
2023-02-05T17:57:52.402Z,100.00
2023-02-05T18:00:25.091Z,100.00
2023-02-05T18:02:55.576Z,100.00
2023-02-05T18:05:32.543Z,100.00
2023-02-05T18:08:03.407Z,100.00
2023-02-05T18:10:35.222Z,100.00
2023-02-05T18:13:05.661Z,100.00
2023-02-05T18:15:35.974Z,100.00
2023-02-05T18:18:05.985Z,100.00
2023-02-05T18:20:39.087Z,100.00
2023-02-05T18:23:10.903Z,100.00
2023-02-05T18:25:42.212Z,100.00
2023-02-05T18:31:13.275Z,100.00
2023-02-05T18:33:43.545Z,100.00
2023-02-05T18:36:17.658Z,100.00
2023-02-05T18:38:47.616Z,100.00
2023-02-05T18:41:19.674Z,100.00
2023-02-05T18:43:49.602Z,100.00
2023-02-05T18:46:21.307Z,100.00
2023-02-05T18:48:52.168Z,100.00
2023-02-05T18:51:27.543Z,100.00
2023-02-05T18:53:57.636Z,100.00
2023-02-05T18:56:29.722Z,100.00
2023-02-05T18:59:03.166Z,100.00
2023-02-05T19:01:41.359Z,100.00
2023-02-05T19:04:34.232Z,100.00
2023-02-05T19:07:06.820Z,100.00
2023-02-05T19:09:37.125Z,100.00
2023-02-05T19:12:07.572Z,100.00
2023-02-05T19:14:37.550Z,100.00
2023-02-05T19:17:08.015Z,100.00
2023-02-05T19:19:37.923Z,100.00
2023-02-05T19:22:10.911Z,100.00
2023-02-05T19:24:40.863Z,100.00
2023-02-05T19:27:10.835Z,100.00
2023-02-05T19:29:41.305Z,100.00
2023-02-05T19:32:11.314Z,100.00
2023-02-05T19:34:43.464Z,100.00
2023-02-05T19:37:15.977Z,100.00
2023-02-05T19:39:49.198Z,100.00
2023-02-05T19:42:19.060Z,100.00
2023-02-05T19:44:48.865Z,100.00
2023-02-05T19:47:19.012Z,100.00
2023-02-05T19:49:48.874Z,100.00
2023-02-05T19:52:21.219Z,100.00
2023-02-05T19:54:50.990Z,100.00
2023-02-05T19:57:20.789Z,100.00
2023-02-05T19:59:51.001Z,100.00
2023-02-05T20:02:21.119Z,100.00
2023-02-05T20:04:51.010Z,100.00
2023-02-05T20:07:23.609Z,100.00
2023-02-05T20:09:53.459Z,100.00
2023-02-05T20:12:23.472Z,100.00
2023-02-05T20:14:53.360Z,100.00
2023-02-05T20:17:23.258Z,100.00
2023-02-05T20:20:02.521Z,100.00
2023-02-05T20:22:41.708Z,100.00
2023-02-05T20:25:11.943Z,100.00
2023-02-05T20:27:41.852Z,100.00
2023-02-05T20:30:30.610Z,100.00
2023-02-05T20:33:00.572Z,100.00
2023-02-05T20:35:31.594Z,100.00
2023-02-05T20:38:04.539Z,100.00
2023-02-05T20:40:34.610Z,100.00
2023-02-05T20:43:07.240Z,100.00
2023-02-05T20:45:37.279Z,100.00
2023-02-05T20:48:07.547Z,100.00
2023-02-05T20:50:37.520Z,100.00
2023-02-05T20:53:10.316Z,100.00
2023-02-05T20:55:40.285Z,100.00
2023-02-05T20:58:10.227Z,100.00
2023-02-05T21:00:40.478Z,100.00
2023-02-05T21:03:10.433Z,100.00
2023-02-05T21:05:40.403Z,100.00
2023-02-05T21:08:13.189Z,100.00
2023-02-05T21:10:43.097Z,100.00
2023-02-05T21:13:13.046Z,100.00
2023-02-05T21:15:42.966Z,100.00
2023-02-05T21:18:13.671Z,100.00
2023-02-05T21:20:43.535Z,100.00
2023-02-05T21:23:16.168Z,100.00
2023-02-05T21:25:46.756Z,100.00
2023-02-05T21:28:18.974Z,100.00
2023-02-05T21:30:51.237Z,100.00
2023-02-05T21:33:21.294Z,100.00
2023-02-05T21:35:51.052Z,100.00
2023-02-05T21:38:23.409Z,100.00
2023-02-05T21:40:54.001Z,100.00
2023-02-05T21:43:23.748Z,100.00
2023-02-05T21:45:53.546Z,100.00
2023-02-05T21:48:23.395Z,100.00
2023-02-05T21:50:53.194Z,100.00
2023-02-05T21:53:25.577Z,100.00
2023-02-05T21:55:55.382Z,100.00
2023-02-05T21:58:25.272Z,100.00
2023-02-05T22:00:55.112Z,100.00
2023-02-05T22:03:24.891Z,100.00
2023-02-05T22:05:54.681Z,100.00
2023-02-05T22:08:27.097Z,100.00
2023-02-05T22:10:56.837Z,100.00
2023-02-05T22:13:26.678Z,100.00
2023-02-05T22:16:04.722Z,100.00
2023-02-05T22:18:34.535Z,100.00
2023-02-05T22:21:12.186Z,100.00
2023-02-05T22:23:48.979Z,100.00
2023-02-05T22:26:19.970Z,100.00
2023-02-05T22:28:49.978Z,100.00
2023-02-05T22:31:21.505Z,100.00
2023-02-05T22:33:52.594Z,100.00
2023-02-05T22:36:24.017Z,100.00
2023-02-05T22:38:56.951Z,100.00
2023-02-05T22:41:30.077Z,100.00
2023-02-05T22:44:01.640Z,100.00
2023-02-05T22:46:33.567Z,100.00
2023-02-05T22:49:05.091Z,100.00
2023-02-05T22:51:37.513Z,100.00
2023-02-05T22:54:10.980Z,100.00
2023-02-05T22:56:41.338Z,100.00
2023-02-05T22:59:11.426Z,100.00
2023-02-05T23:01:41.951Z,100.00
2023-02-05T23:04:12.836Z,100.00
2023-02-05T23:06:45.292Z,100.00
2023-02-05T23:09:20.765Z,100.00
2023-02-05T23:11:50.652Z,100.00
2023-02-05T23:14:21.572Z,100.00
2023-02-05T23:16:51.697Z,100.00
2023-02-05T23:19:23.241Z,100.00
2023-02-05T23:21:53.111Z,100.00
2023-02-05T23:24:25.504Z,100.00
2023-02-05T23:26:55.575Z,100.00
2023-02-05T23:29:27.185Z,100.00
2023-02-05T23:31:56.965Z,100.00
2023-02-05T23:34:26.719Z,100.00
2023-02-05T23:36:56.635Z,100.00
2023-02-05T23:39:29.041Z,100.00
2023-02-05T23:41:58.816Z,100.00
2023-02-05T23:44:28.807Z,100.00
2023-02-05T23:46:58.550Z,100.00
2023-02-05T23:49:28.673Z,100.00
2023-02-05T23:51:59.214Z,100.00
2023-02-05T23:54:31.668Z,100.00
2023-02-05T23:57:01.434Z,100.00
2023-02-05T23:59:31.338Z,100.00
